createdAt,value
2023-10-29T00:02:36.523Z,16.1
2023-10-29T00:05:23.990Z,17.2
2023-10-29T00:08:11.526Z,17.9
2023-10-29T00:11:00.262Z,16.8
2023-10-29T00:13:47.776Z,16.6
2023-10-29T00:16:35.215Z,16.1
2023-10-29T00:19:22.717Z,15.9
2023-10-29T00:22:10.027Z,15.8
2023-10-29T00:24:57.585Z,16.4
2023-10-29T00:27:45.384Z,17.4
2023-10-29T00:30:32.884Z,16
2023-10-29T00:33:20.655Z,15.7
2023-10-29T00:36:08.659Z,16.2
2023-10-29T00:38:56.043Z,15.9
2023-10-29T00:41:43.517Z,17.5
2023-10-29T00:44:30.993Z,15.7
2023-10-29T00:47:18.584Z,16.4
2023-10-29T00:50:07.480Z,14.7
2023-10-29T00:52:55.440Z,16.4
2023-10-29T00:55:43.600Z,17.1
2023-10-29T00:58:31.169Z,16.8
2023-10-29T01:01:19.682Z,15.2
2023-10-29T01:04:08.589Z,15.6
2023-10-29T01:06:55.940Z,15.7
2023-10-29T01:09:44.092Z,16.3
2023-10-29T01:12:31.942Z,16.4
2023-10-29T01:15:19.652Z,15.2
2023-10-29T01:18:08.282Z,14.8
2023-10-29T01:20:56.107Z,15.3
2023-10-29T01:23:43.419Z,15.9
2023-10-29T01:26:31.137Z,14.5
2023-10-29T01:29:18.836Z,15.2
2023-10-29T01:32:07.426Z,15.4
2023-10-29T01:34:54.884Z,15.7
2023-10-29T01:37:42.397Z,15.5
2023-10-29T01:40:29.634Z,15.6
2023-10-29T01:43:17.319Z,13.8
2023-10-29T01:46:05.817Z,12.8
2023-10-29T01:48:53.185Z,13.3
2023-10-29T01:51:40.719Z,14.4
2023-10-29T01:54:28.185Z,14.4
2023-10-29T01:57:16.029Z,13.1
2023-10-29T02:00:03.705Z,11.9
2023-10-29T02:02:54.450Z,12.7
2023-10-29T02:05:42.739Z,12.9
2023-10-29T02:08:30.065Z,12
2023-10-29T02:11:18.863Z,11.6
2023-10-29T02:14:07.018Z,10.7
2023-10-29T02:16:54.525Z,11.4
2023-10-29T02:19:41.931Z,11.8
2023-10-29T02:22:29.371Z,10.6
2023-10-29T02:25:16.845Z,11.3
2023-10-29T02:28:05.235Z,11.1
2023-10-29T02:30:52.927Z,9.7
2023-10-29T02:33:40.328Z,9.9
2023-10-29T02:36:29.248Z,10.5
2023-10-29T02:39:17.110Z,10.4
2023-10-29T02:42:05.442Z,9.9
2023-10-29T02:44:53.006Z,9.9
2023-10-29T02:47:41.098Z,9.8
2023-10-29T02:50:28.686Z,10
2023-10-29T02:53:16.435Z,9.8
2023-10-29T02:56:04.840Z,8.7
2023-10-29T02:58:52.328Z,8.7
2023-10-29T03:01:39.731Z,9.3
2023-10-29T03:04:27.088Z,10.4
2023-10-29T03:07:14.716Z,9.7
2023-10-29T03:10:03.339Z,8.8
2023-10-29T03:12:52.112Z,9.4
2023-10-29T03:15:39.890Z,9.4
2023-10-29T03:18:27.529Z,8.6
2023-10-29T03:21:15.459Z,9.8
2023-10-29T03:24:04.192Z,9.1
2023-10-29T03:26:51.996Z,7.5
2023-10-29T03:29:40.678Z,8.6
2023-10-29T03:32:28.110Z,8
2023-10-29T03:35:15.790Z,8.5
2023-10-29T03:38:04.501Z,7.4
2023-10-29T03:40:53.907Z,7.8
2023-10-29T03:43:41.272Z,7.8
2023-10-29T03:46:28.608Z,8.7
2023-10-29T03:49:16.541Z,9
2023-10-29T03:52:05.225Z,7.4
2023-10-29T03:54:52.781Z,8.1
2023-10-29T03:57:40.219Z,8.5
2023-10-29T04:00:28.241Z,9.2
2023-10-29T04:03:16.014Z,7.9
2023-10-29T04:06:04.864Z,8.2
2023-10-29T04:08:55.109Z,6.9
2023-10-29T04:11:42.593Z,7.9
2023-10-29T04:14:30.024Z,7.1
2023-10-29T04:17:17.724Z,8.6
2023-10-29T04:20:07.328Z,7.8
2023-10-29T04:22:55.448Z,6.9
2023-10-29T04:25:42.832Z,7.1
2023-10-29T04:28:30.150Z,7.8
2023-10-29T04:31:17.791Z,7
2023-10-29T04:34:06.310Z,6.8
2023-10-29T04:36:54.431Z,6.5
2023-10-29T04:39:41.736Z,6.6
2023-10-29T04:42:30.351Z,6.8
2023-10-29T04:45:17.962Z,6.4
2023-10-29T04:48:06.439Z,5.5
2023-10-29T04:50:54.153Z,5.7
2023-10-29T04:53:41.594Z,6.6
2023-10-29T04:56:29.182Z,6.8
2023-10-29T04:59:18.627Z,7.1
2023-10-29T05:02:07.500Z,6.8
2023-10-29T05:04:54.816Z,6
2023-10-29T05:07:42.280Z,6.6
2023-10-29T05:10:31.068Z,6.3
2023-10-29T05:13:18.645Z,7
2023-10-29T05:16:07.090Z,6.5
2023-10-29T05:18:54.977Z,6
2023-10-29T05:21:42.431Z,6.7
2023-10-29T05:24:30.104Z,6.8
2023-10-29T05:27:17.764Z,6.4
2023-10-29T05:30:06.132Z,7.1
2023-10-29T05:32:55.351Z,6.6
2023-10-29T05:35:42.790Z,7.4
2023-10-29T05:38:31.228Z,6.7
2023-10-29T05:41:18.832Z,7
2023-10-29T05:44:07.226Z,7
2023-10-29T05:46:54.674Z,6.7
2023-10-29T05:49:42.201Z,6.3
2023-10-29T05:52:29.603Z,6.1
2023-10-29T05:55:17.492Z,6.5
2023-10-29T05:58:07.979Z,6.1
2023-10-29T06:00:55.551Z,5.8
2023-10-29T06:03:43.591Z,5.8
2023-10-29T06:06:31.160Z,5.6
2023-10-29T06:09:24.248Z,6.6
2023-10-29T06:12:12.186Z,5.8
2023-10-29T06:15:00.777Z,5.5
2023-10-29T06:17:48.402Z,5.6
2023-10-29T06:20:35.776Z,6.1
2023-10-29T06:23:26.326Z,5.8
2023-10-29T06:26:13.876Z,5.3
2023-10-29T06:29:02.913Z,6
2023-10-29T06:31:51.756Z,5.4
2023-10-29T06:34:39.135Z,6
2023-10-29T06:37:26.532Z,5.8
2023-10-29T06:40:14.217Z,5.7
2023-10-29T06:43:02.856Z,5.4
2023-10-29T06:45:50.370Z,5.5
2023-10-29T06:48:37.762Z,5.2
2023-10-29T06:51:27.436Z,4.9
2023-10-29T06:54:15.176Z,4.5
2023-10-29T06:57:05.650Z,4.3
2023-10-29T06:59:54.191Z,4.9
2023-10-29T07:02:42.223Z,4.2
2023-10-29T07:05:29.777Z,4.8
2023-10-29T07:08:17.447Z,4.1
2023-10-29T07:11:05.841Z,4
2023-10-29T07:13:53.593Z,4.1
2023-10-29T07:16:41.114Z,4.3
2023-10-29T07:19:30.296Z,5.5
2023-10-29T07:22:17.784Z,4.8
2023-10-29T07:25:06.925Z,4.8
2023-10-29T07:27:54.470Z,4.3
2023-10-29T07:30:41.996Z,4.3
2023-10-29T07:33:30.245Z,4.4
2023-10-29T07:36:18.147Z,4.9
2023-10-29T07:39:06.561Z,4.8
2023-10-29T07:41:54.117Z,6.1
2023-10-29T07:44:41.586Z,5.3
2023-10-29T07:47:29.681Z,5.3
2023-10-29T07:50:22.788Z,6
2023-10-29T07:53:14.500Z,5.8
2023-10-29T07:56:03.014Z,5.4
2023-10-29T07:58:54.729Z,6
2023-10-29T08:01:42.476Z,5.8
2023-10-29T08:04:31.000Z,5.9
2023-10-29T08:07:18.859Z,6.4
2023-10-29T08:10:06.550Z,6
2023-10-29T08:12:55.038Z,6.1
2023-10-29T08:15:43.693Z,6.1
2023-10-29T08:18:31.621Z,6.4
2023-10-29T08:21:19.425Z,5.6
2023-10-29T08:24:08.092Z,5.4
2023-10-29T08:26:55.724Z,4.8
2023-10-29T08:29:43.237Z,5.4
2023-10-29T08:32:30.860Z,5.3
2023-10-29T08:35:20.166Z,7.1
2023-10-29T08:38:07.936Z,5.1
2023-10-29T08:40:55.346Z,5.5
2023-10-29T08:43:42.674Z,4.8
2023-10-29T08:46:30.399Z,5.8
2023-10-29T08:49:18.387Z,6.7
2023-10-29T08:52:06.958Z,6.1
2023-10-29T08:54:54.336Z,5.1
2023-10-29T08:57:41.693Z,5.2
2023-10-29T09:00:38.291Z,5.9
2023-10-29T09:03:34.028Z,5.4
2023-10-29T09:06:22.166Z,5.3
2023-10-29T09:09:10.138Z,4.7
2023-10-29T09:11:58.537Z,5.8
2023-10-29T09:14:46.025Z,4.7
2023-10-29T09:17:38.238Z,5.1
2023-10-29T09:20:27.275Z,4.6
2023-10-29T09:23:15.194Z,4.5
2023-10-29T09:26:03.685Z,4
2023-10-29T09:28:51.507Z,4.7
2023-10-29T09:31:39.331Z,4.4
2023-10-29T09:34:26.987Z,4.9
2023-10-29T09:37:15.326Z,4.2
2023-10-29T09:40:04.142Z,4.8
2023-10-29T09:42:54.969Z,5.1
2023-10-29T09:45:43.291Z,5.2
2023-10-29T09:48:32.067Z,5.2
2023-10-29T09:51:20.570Z,4.1
2023-10-29T09:54:09.193Z,4.4
2023-10-29T09:56:58.279Z,3.9
2023-10-29T09:59:46.189Z,3.6
2023-10-29T10:02:34.014Z,4.8
2023-10-29T10:05:36.208Z,4
2023-10-29T10:08:27.319Z,4.2
2023-10-29T10:11:16.639Z,4.4
2023-10-29T10:14:08.333Z,3.9
2023-10-29T10:17:11.649Z,4.2
2023-10-29T10:20:00.394Z,4.4
2023-10-29T10:22:52.309Z,4.2
2023-10-29T10:25:44.592Z,3.9
2023-10-29T10:28:32.053Z,3.6
2023-10-29T10:31:19.528Z,4.2
2023-10-29T10:34:07.493Z,4
2023-10-29T10:36:56.492Z,3.9
2023-10-29T10:39:46.337Z,3.6
2023-10-29T10:42:33.678Z,3.8
2023-10-29T10:45:21.343Z,3.6
2023-10-29T10:48:12.466Z,3.3
2023-10-29T10:51:02.549Z,3.3
2023-10-29T10:53:51.556Z,3.9
2023-10-29T10:56:39.237Z,4
2023-10-29T10:59:27.262Z,4.1
2023-10-29T11:02:21.082Z,4.3
2023-10-29T11:05:09.531Z,3.9
2023-10-29T11:07:58.358Z,3.9
2023-10-29T11:10:46.755Z,3.4
2023-10-29T11:13:34.290Z,3.2
2023-10-29T11:16:22.349Z,3
2023-10-29T11:19:10.665Z,3.2
2023-10-29T11:22:30.269Z,3.1
2023-10-29T11:25:33.424Z,3.3
2023-10-29T11:28:21.985Z,4.1
2023-10-29T11:31:41.669Z,3.6
2023-10-29T11:34:31.080Z,3.3
2023-10-29T11:37:19.835Z,3
2023-10-29T11:40:24.809Z,3.1
2023-10-29T11:43:17.786Z,3.5
2023-10-29T11:46:08.368Z,3.7
2023-10-29T11:48:55.995Z,3.9
2023-10-29T11:51:49.835Z,4.3
2023-10-29T11:54:40.100Z,4.4
2023-10-29T11:57:28.095Z,3.7
2023-10-29T12:00:17.405Z,3.5
2023-10-29T12:03:07.814Z,3.4
2023-10-29T12:05:55.742Z,3.3
2023-10-29T12:08:43.267Z,3.2
2023-10-29T12:11:30.982Z,3.6
2023-10-29T12:14:18.914Z,3.7
2023-10-29T12:17:39.068Z,3.5
2023-10-29T12:20:30.977Z,4
2023-10-29T12:26:07.427Z,3.9
2023-10-29T12:28:58.810Z,3.6
2023-10-29T12:31:46.693Z,4
2023-10-29T12:34:34.341Z,4.1
2023-10-29T12:37:33.864Z,3.8
2023-10-29T12:40:21.550Z,3.5
2023-10-29T12:43:09.628Z,3
2023-10-29T12:45:57.174Z,3
2023-10-29T12:48:46.338Z,3
2023-10-29T12:51:44.116Z,3.6
2023-10-29T12:54:33.839Z,2.8
2023-10-29T12:57:28.327Z,3.7
2023-10-29T13:00:16.048Z,3.4
2023-10-29T13:03:05.224Z,2.9
2023-10-29T13:05:53.214Z,3.3
2023-10-29T13:08:40.851Z,3
2023-10-29T13:11:28.233Z,3.5
2023-10-29T13:14:15.840Z,3.2
2023-10-29T13:17:05.172Z,2.8
2023-10-29T13:19:53.432Z,3
2023-10-29T13:22:40.741Z,3.2
2023-10-29T13:25:28.210Z,3
2023-10-29T13:28:16.260Z,3.2
2023-10-29T13:31:05.106Z,3.6
2023-10-29T13:33:53.542Z,3.1
2023-10-29T13:36:41.144Z,3.2
2023-10-29T13:39:29.561Z,3.2
2023-10-29T13:42:17.539Z,3.2
2023-10-29T13:45:06.069Z,3.2
2023-10-29T13:47:54.543Z,3.3
2023-10-29T13:50:41.942Z,3
2023-10-29T13:53:29.654Z,3.2
2023-10-29T13:56:23.199Z,3.2
2023-10-29T13:59:10.585Z,3.1
2023-10-29T14:02:00.168Z,3.3
2023-10-29T14:04:49.290Z,3.5
2023-10-29T14:07:37.872Z,3.6
2023-10-29T14:10:25.206Z,3.9
2023-10-29T14:13:12.633Z,3
2023-10-29T14:16:06.053Z,3.5
2023-10-29T14:18:53.509Z,3.5
2023-10-29T14:21:40.848Z,3.8
2023-10-29T14:24:28.300Z,4.7
2023-10-29T14:27:16.163Z,5.2
2023-10-29T14:30:04.985Z,3.4
2023-10-29T14:32:54.443Z,3.9
2023-10-29T14:35:41.815Z,4.1
2023-10-29T14:38:29.245Z,4.4
2023-10-29T14:41:17.258Z,3.4
2023-10-29T14:44:05.675Z,4.3
2023-10-29T14:46:53.994Z,4.3
2023-10-29T14:49:42.970Z,4.4
2023-10-29T14:52:31.819Z,4.3
2023-10-29T14:55:22.720Z,4
2023-10-29T14:58:10.312Z,5
2023-10-29T15:00:57.989Z,4.8
2023-10-29T15:03:50.522Z,5.5
2023-10-29T15:06:41.701Z,4.5
2023-10-29T15:09:30.555Z,4.9
2023-10-29T15:12:19.261Z,4.7
2023-10-29T15:15:18.515Z,5.6
2023-10-29T15:18:14.773Z,5.4
2023-10-29T15:21:04.647Z,5.7
2023-10-29T15:23:55.843Z,6
2023-10-29T15:26:55.320Z,5.5
2023-10-29T15:29:49.232Z,6.8
2023-10-29T15:32:37.230Z,6.6
2023-10-29T15:35:24.706Z,6.6
2023-10-29T15:38:11.992Z,6.9
2023-10-29T15:40:59.451Z,6
2023-10-29T15:43:47.129Z,6.1
2023-10-29T15:46:42.122Z,6.3
2023-10-29T15:49:34.595Z,6.4
2023-10-29T15:52:33.281Z,5.5
2023-10-29T15:55:22.204Z,6
2023-10-29T15:58:10.080Z,6
2023-10-29T16:00:58.015Z,6.9
2023-10-29T16:03:46.279Z,6.2
2023-10-29T16:06:37.216Z,6.4
2023-10-29T16:09:24.989Z,6.8
2023-10-29T16:12:12.473Z,6.6
2023-10-29T16:15:00.663Z,7
2023-10-29T16:17:50.426Z,6.2
2023-10-29T16:20:37.997Z,6.4
2023-10-29T16:23:27.159Z,5.7
2023-10-29T16:26:15.705Z,6.5
2023-10-29T16:29:04.222Z,7.5
2023-10-29T16:31:51.608Z,6.5
2023-10-29T16:34:39.284Z,7.7
2023-10-29T16:37:26.872Z,6.5
2023-10-29T16:40:15.517Z,6.6
2023-10-29T16:43:04.176Z,6.6
2023-10-29T16:45:51.761Z,7
2023-10-29T16:48:39.606Z,7.4
2023-10-29T16:51:27.070Z,6.7
2023-10-29T16:54:15.090Z,6.4
2023-10-29T16:57:03.876Z,6.8
2023-10-29T16:59:51.584Z,6.5
2023-10-29T17:02:39.444Z,6.7
2023-10-29T17:05:27.116Z,6.5
2023-10-29T17:08:15.097Z,7
2023-10-29T17:11:03.882Z,7.1
2023-10-29T17:13:51.404Z,8.3
2023-10-29T17:16:39.731Z,7.9
2023-10-29T17:19:27.588Z,7.3
2023-10-29T17:22:15.511Z,7.2
2023-10-29T17:25:04.029Z,7.3
2023-10-29T17:27:52.151Z,6.6
2023-10-29T17:30:39.994Z,6.5
2023-10-29T17:33:27.553Z,7.5
2023-10-29T17:36:15.897Z,7.7
2023-10-29T17:39:04.879Z,8.6
2023-10-29T17:41:55.408Z,7.7
2023-10-29T17:44:42.848Z,8
2023-10-29T17:47:31.531Z,8.6
2023-10-29T17:50:19.037Z,8.6
2023-10-29T17:53:06.729Z,8.7
2023-10-29T17:55:54.257Z,8.2
2023-10-29T17:58:41.927Z,9
2023-10-29T18:01:29.418Z,9.4
2023-10-29T18:04:17.487Z,8.9
2023-10-29T18:07:06.298Z,8.6
2023-10-29T18:09:53.853Z,7.9
2023-10-29T18:12:41.090Z,7.8
2023-10-29T18:15:29.186Z,9.3
2023-10-29T18:18:17.148Z,9.1
2023-10-29T18:21:06.313Z,8.1
2023-10-29T18:23:53.835Z,7.2
2023-10-29T18:26:41.444Z,6.9
2023-10-29T18:29:29.272Z,7.4
2023-10-29T18:32:17.976Z,8.1
2023-10-29T18:35:06.886Z,8.3
2023-10-29T18:37:55.256Z,6.6
2023-10-29T18:40:46.328Z,6.9
2023-10-29T18:43:34.137Z,7.7
2023-10-29T18:46:21.735Z,7.2
2023-10-29T18:49:09.995Z,8.2
2023-10-29T18:51:57.772Z,7.8
2023-10-29T18:54:46.258Z,7.7
2023-10-29T18:57:33.841Z,7.6
2023-10-29T19:00:21.570Z,8.6
2023-10-29T19:03:10.186Z,8.9
2023-10-29T19:05:58.159Z,9
2023-10-29T19:08:50.031Z,8.1
2023-10-29T19:11:37.627Z,8.1
2023-10-29T19:14:25.282Z,7.5
2023-10-29T19:17:17.357Z,7.6
2023-10-29T19:20:06.436Z,7.7
2023-10-29T19:22:56.198Z,8.1
2023-10-29T19:25:43.999Z,7.9
2023-10-29T19:28:31.595Z,8.6
2023-10-29T19:31:23.934Z,8.3
2023-10-29T19:34:12.943Z,7.4
2023-10-29T19:37:02.249Z,6.9
2023-10-29T19:39:50.232Z,6.8
2023-10-29T19:42:38.294Z,7.4
2023-10-29T19:45:25.961Z,8.1
2023-10-29T19:48:15.574Z,6.5
2023-10-29T19:51:04.203Z,6.7
2023-10-29T19:53:53.143Z,8.3
2023-10-29T19:56:40.888Z,7.8
2023-10-29T19:59:28.539Z,6.2
2023-10-29T20:02:17.067Z,6.8
2023-10-29T20:05:05.581Z,5.8
2023-10-29T20:07:53.489Z,6.8
2023-10-29T20:10:40.814Z,6.2
2023-10-29T20:13:28.550Z,5.6
2023-10-29T20:16:16.876Z,6.8
2023-10-29T20:19:05.420Z,6.7
2023-10-29T20:21:52.867Z,4.1
2023-10-29T20:24:41.123Z,4.7
2023-10-29T20:27:29.163Z,4.3
2023-10-29T20:30:17.639Z,4.6
2023-10-29T20:33:07.474Z,4.9
2023-10-29T20:35:55.739Z,4.6
2023-10-29T20:38:45.346Z,4.2
2023-10-29T20:41:32.927Z,4.7
2023-10-29T20:44:21.576Z,5.2
2023-10-29T20:47:09.827Z,4.7
2023-10-29T20:49:57.372Z,4.6
2023-10-29T20:52:44.810Z,4.6
2023-10-29T20:55:32.288Z,3.6
2023-10-29T20:58:20.200Z,3.7
2023-10-29T21:01:07.884Z,3.6
2023-10-29T21:03:55.797Z,4.6
2023-10-29T21:06:43.647Z,4.5
2023-10-29T21:09:32.652Z,4.2
2023-10-29T21:12:20.345Z,3.3
2023-10-29T21:15:08.342Z,3.8
2023-10-29T21:17:56.243Z,3.3
2023-10-29T21:20:44.019Z,3
2023-10-29T21:23:31.516Z,2.6
2023-10-29T21:26:19.295Z,2.6
2023-10-29T21:29:06.980Z,2.4
2023-10-29T21:31:59.702Z,2.2
2023-10-29T21:34:48.048Z,2.1
2023-10-29T21:37:35.581Z,2.4
2023-10-29T21:40:23.232Z,2.4
2023-10-29T21:43:10.726Z,2.1
2023-10-29T21:45:58.154Z,2.8
2023-10-29T21:48:45.907Z,2.9
2023-10-29T21:51:33.585Z,2.8
2023-10-29T21:54:26.123Z,3
2023-10-29T21:57:14.520Z,3.2
2023-10-29T22:00:03.838Z,3.8
2023-10-29T22:02:53.493Z,3.6
2023-10-29T22:05:46.013Z,3.7
2023-10-29T22:08:42.260Z,4.9
2023-10-29T22:11:29.632Z,3.6
2023-10-29T22:14:17.365Z,4.4
2023-10-29T22:17:05.722Z,3.9
2023-10-29T22:19:53.186Z,3.5
2023-10-29T22:22:41.003Z,5.1
2023-10-29T22:25:28.494Z,5
2023-10-29T22:28:16.113Z,4.3
2023-10-29T22:31:04.935Z,4.9
2023-10-29T22:33:52.475Z,4.5
2023-10-29T22:36:40.026Z,4.4
2023-10-29T22:39:27.432Z,4.9
2023-10-29T22:42:17.769Z,5.4
2023-10-29T22:45:06.304Z,4.1
2023-10-29T22:47:54.626Z,4.5
2023-10-29T22:50:42.027Z,4.5
2023-10-29T22:53:29.420Z,4.9
2023-10-29T22:56:17.114Z,4.7
2023-10-29T22:59:05.587Z,4.1
2023-10-29T23:01:53.540Z,3.6
2023-10-29T23:04:40.841Z,4.2
2023-10-29T23:07:28.215Z,5.1
2023-10-29T23:10:16.543Z,4.4
2023-10-29T23:13:04.873Z,4
2023-10-29T23:15:52.313Z,4
2023-10-29T23:18:41.021Z,4.6
2023-10-29T23:21:28.743Z,4.2
2023-10-29T23:24:16.467Z,4.7
2023-10-29T23:27:06.044Z,4.2
2023-10-29T23:29:54.445Z,3.7
2023-10-29T23:32:42.057Z,3.9
2023-10-29T23:35:29.447Z,4.3
2023-10-29T23:38:17.169Z,3.4
2023-10-29T23:41:05.635Z,3.7
2023-10-29T23:43:53.079Z,3.5
2023-10-29T23:46:40.466Z,4
2023-10-29T23:49:27.793Z,3.8
2023-10-29T23:52:15.739Z,3.5
2023-10-29T23:55:04.317Z,3.6
2023-10-29T23:57:52.935Z,3.5
